This is the latest recevied weather packets stored in our database for station/object OE-11051. If no packets are shown the sender has not sent any weather packets the latest 10 day(s).
| Time | Temp. | Humidity | Pressure | Rain* | Wind** | Luminosity | Snow |
|---|---|---|---|---|---|---|---|
| 1787937080 | 19.44° C | 91% | 1014.1 hPa | 1.52 mm | - | 52 W/m² | - |
| 1787936706 | 20° C | 91% | 1013.9 hPa | 1.52 mm | - | 148 W/m² | - |
| 1787936106 | 20° C | 92% | 1014.6 hPa | 1.52 mm | - | 129 W/m² | - |
| 1787935280 | 20° C | 92% | 1014.7 hPa | 2.79 mm | - | 77 W/m² | - |
| 1787934907 | 20° C | 91% | 1014.5 hPa | 6.1 mm | - | 174 W/m² | - |
| 1787934307 | 20° C | 92% | 1014.2 hPa | 6.86 mm | - | 168 W/m² | - |
| 1787933480 | 19.44° C | 93% | 1014.3 hPa | 6.1 mm | - | 90 W/m² | - |
| 1787933107 | 19.44° C | 93% | 1016.6 hPa | 5.59 mm | - | 13 W/m² | - |
| 1787932507 | 19.44° C | 92% | 1015.6 hPa | 5.33 mm | - | 6 W/m² | - |
| 1787931680 | 19.44° C | 91% | 1015.1 hPa | 5.08 mm | - | 13 W/m² | - |
| 1787931307 | 20° C | 89% | 1015.1 hPa | 4.06 mm | - | 6 W/m² | - |
| 1787930707 | 21.11° C | 81% | 1015.8 hPa | 0.51 mm | - | 6 W/m² | - |
| 1787929880 | 23.33° C | 67% | 1014.9 hPa | 0 mm | - | 13 W/m² | - |
| 1787929506 | 23.89° C | 66% | 1013.6 hPa | 0 mm | - | 32 W/m² | - |
| 1787928906 | 24.44° C | 66% | 1013.3 hPa | 0 mm | - | 39 W/m² | - |
| 1787928080 | 25° C | 65% | 1012.4 hPa | 0.25 mm | - | 84 W/m² | - |
| 1787927706 | 25.56° C | 65% | 1012.1 hPa | 0.25 mm | - | 142 W/m² | - |
| 1787927106 | 25.56° C | 66% | 1011.4 hPa | 0.25 mm | - | 148 W/m² | - |
| 1787926280 | 25.56° C | 66% | 1011.4 hPa | 0.25 mm | - | 200 W/m² | - |
| 1787925907 | 26.11° C | 66% | 1011.3 hPa | 0.25 mm | - | 271 W/m² | - |
| 1787925307 | 25.56° C | 68% | 1011.3 hPa | 0.25 mm | - | 271 W/m² | - |
| 1787924480 | 25.56° C | 70% | 1010.9 hPa | 0.25 mm | - | 193 W/m² | - |
| 1787924107 | 27.22° C | 65% | 1010.9 hPa | 0 mm | - | 97 W/m² | - |
| 1787923507 | 28.33° C | 53% | 1010.5 hPa | 0 mm | - | 97 W/m² | - |
| 1787922678 | 28.89° C | 50% | 1009.9 hPa | 0 mm | - | 110 W/m² | - |
* Rain latest hour (hover to see other rain measurements)
** Current wind speed in m/s (hover to see current wind gust speed)